Terlet Airfield

EHTL · Gelderland, Holandia

7 października 2022

Czas Kod Pogoda Temp. Widoczność Sufit Wiatr METAR/SPECI
14:50
V
18 °C 10 km+ - 220° 220° 10 kt METAR EDLV 071250Z 22010KT CAVOK 18/08 Q1021
14:20
V
18 °C 10 km+ - 220° 220° 11 kt METAR EDLV 071220Z 22011KT 170V260 CAVOK 18/08 Q1021
13:50
V
17 °C 10 km+ - 220° 220° 11 kt METAR EDLV 071150Z 22011KT 180V260 9999 FEW037 17/08 Q1022
13:20
V
17 °C 10 km+ - 240° 240° 12 kt METAR EDLV 071120Z 24012KT 200V260 CAVOK 17/08 Q1022
12:50
V
17 °C 10 km+ - 230° 230° 12 kt METAR EDLV 071050Z 23012KT CAVOK 17/08 Q1023
12:20
V
16 °C 10 km+ - 230° 230° 9 kt METAR EDLV 071020Z 23009KT CAVOK 16/09 Q1023
11:50
V
15 °C 10 km+ - 220° 220° 9 kt METAR EDLV 070950Z 22009KT 190V250 CAVOK 15/10 Q1024
11:20
V
14 °C 10 km+ - 210° 210° 9 kt METAR EDLV 070920Z 21009KT CAVOK 14/08 Q1024
10:50
V
13 °C 10 km+ - 210° 210° 9 kt METAR EDLV 070850Z 21009KT CAVOK 13/09 Q1024
10:20
V
12 °C 10 km+ - 210° 210° 8 kt METAR EDLV 070820Z 21008KT 180V240 CAVOK 12/08 Q1024
09:50
V
11 °C 10 km+ - 190° 190° 8 kt METAR EDLV 070750Z 19008KT CAVOK 11/08 Q1024
09:20
V
9 °C 10 km+ - 190° 190° 6 kt METAR EDLV 070720Z 19006KT CAVOK 09/08 Q1025
08:50
V
8 °C 10 km+ - 180° 180° 6 kt METAR EDLV 070650Z 18006KT CAVOK 08/07 Q1024
08:20
V
8 °C 10 km+ - 190° 190° 7 kt METAR EDLV 070620Z 19007KT CAVOK 08/06 Q1025
07:50
V
7 °C 10 km+ - 180° 180° 6 kt METAR EDLV 070550Z 18006KT CAVOK 07/06 Q1025
07:20
V
7 °C 10 km+ - 180° 180° 6 kt METAR EDLV 070520Z 18006KT CAVOK 07/06 Q1025
06:50
V
7 °C 10 km+ - 180° 180° 6 kt METAR EDLV 070450Z 18006KT CAVOK 07/06 Q1025
06:20
V
7 °C 10 km+ - 180° 180° 6 kt METAR EDLV 070420Z 18006KT 9999 FEW039 07/06 Q1025
05:50
V
8 °C 10 km+ - 180° 180° 7 kt METAR EDLV 070350Z 18007KT 9999 FEW041 08/07 Q1025
05:20
V
8 °C 10 km+ - 190° 190° 6 kt METAR EDLV 070320Z 19006KT 9999 FEW040 08/07 Q1026
04:50
V
8 °C 10 km+ - 190° 190° 6 kt METAR EDLV 070250Z 19006KT 9999 SCT041 08/06 Q1026
04:20
V
8 °C 10 km+ - 180° 180° 5 kt METAR EDLV 070220Z AUTO 18005KT 9999 // FEW042/// 08/07 Q1026
03:50
V
8 °C 10 km+ - 190° 190° 4 kt METAR EDLV 070150Z AUTO 19004KT 9999 // NCD 08/07 Q1027
03:20
V
8 °C 10 km+ - 180° 180° 5 kt METAR EDLV 070120Z AUTO 18005KT 9999 // NCD 08/07 Q1027
02:50
V
8 °C 10 km+ - 180° 180° 4 kt METAR EDLV 070050Z AUTO 18004KT 9999 // NCD 08/07 Q1027
02:20
V
8 °C 10 km+ - 180° 180° 5 kt METAR EDLV 070020Z AUTO 18005KT 9999 // NCD 08/06 Q1028
01:50
V
9 °C 10 km+ - 180° 180° 4 kt METAR EDLV 062350Z AUTO 18004KT 9999 // NCD 09/07 Q1028
01:20
V
9 °C 10 km+ - 180° 180° 6 kt METAR EDLV 062320Z AUTO 18006KT 9999 // NCD 09/07 Q1028
00:50
V
9 °C 10 km+ - 180° 180° 6 kt METAR EDLV 062250Z AUTO 18006KT 9999 // NCD 09/07 Q1028
00:20
V
9 °C 10 km+ - 180° 180° 5 kt METAR EDLV 062220Z AUTO 18005KT 9999 // NCD 09/07 Q1028

6 października 2022

Czas Kod Pogoda Temp. Widoczność Sufit Wiatr METAR/SPECI
23:50
V
9 °C 10 km+ - 170° 170° 5 kt METAR EDLV 062150Z AUTO 17005KT 9999 // NCD 09/07 Q1029
23:20
V
9 °C 10 km+ - 170° 170° 5 kt METAR EDLV 062120Z 17005KT CAVOK 09/07 Q1029
22:50
V
9 °C 10 km+ - 180° 180° 5 kt METAR EDLV 062050Z 18005KT CAVOK 09/07 Q1029
22:20
V
10 °C 10 km+ - 160° 160° 4 kt METAR EDLV 062020Z 16004KT CAVOK 10/07 Q1029
21:50
V
10 °C 10 km+ - 180° 180° 4 kt METAR EDLV 061950Z 18004KT CAVOK 10/06 Q1029
21:20
V
11 °C 10 km+ - 190° 190° 4 kt METAR EDLV 061920Z 19004KT CAVOK 11/06 Q1029
20:50
V
12 °C 10 km+ - 170° 170° 3 kt METAR EDLV 061850Z 17003KT CAVOK 12/06 Q1029
20:20
V
12 °C 10 km+ - 200° 200° 3 kt METAR EDLV 061820Z 20003KT CAVOK 12/05 Q1029
19:50
V
12 °C 10 km+ - 200° 200° 4 kt METAR EDLV 061750Z 20004KT CAVOK 12/06 Q1029
19:20
V
14 °C 10 km+ - 210° 210° 3 kt METAR EDLV 061720Z 21003KT CAVOK 14/06 Q1029
18:50
V
15 °C 10 km+ - 230° 230° 6 kt METAR EDLV 061650Z 23006KT CAVOK 15/06 Q1029
18:20
V
16 °C 10 km+ - 230° 230° 6 kt METAR EDLV 061620Z 23006KT CAVOK 16/06 Q1029
17:50
V
17 °C 10 km+ - 240° 240° 9 kt METAR EDLV 061550Z 24009KT CAVOK 17/06 Q1029
17:20
V
17 °C 10 km+ - 240° 240° 9 kt METAR EDLV 061520Z 24009KT 210V270 CAVOK 17/06 Q1029
16:50
V
17 °C 10 km+ - 250° 250° 9 kt METAR EDLV 061450Z 25009KT 220V280 CAVOK 17/07 Q1029
16:20
V
17 °C 10 km+ - 230° 230° 10 kt METAR EDLV 061420Z 23010KT 200V260 CAVOK 17/06 Q1029
15:50
V
17 °C 10 km+ - 230° 230° 11 kt METAR EDLV 061350Z 23011KT 9999 FEW044 17/06 Q1029
15:20
V
17 °C 10 km+ - 240° 240° 11 kt METAR EDLV 061320Z 24011KT 9999 FEW042 17/07 Q1029
14:50
V
17 °C 10 km+ - 230° 230° 10 kt METAR EDLV 061250Z 23010KT 190V250 9999 FEW038 17/07 Q1030
14:20
V
17 °C 10 km+ - 260° 260° 10 kt METAR EDLV 061220Z 26010KT 220V300 9999 FEW037 17/07 Q1030
13:50
V
17 °C 10 km+ - 240° 240° 12 kt METAR EDLV 061150Z 24012KT 9999 FEW034 17/08 Q1030
13:20
V
16 °C 10 km+ - 250° 250° 12 kt METAR EDLV 061120Z 25012KT 220V290 9999 FEW034 16/08 Q1030
12:50
V
16 °C 10 km+ - 250° 250° 12 kt METAR EDLV 061050Z 25012KT 220V280 9999 FEW034 16/08 Q1030
12:20
V
16 °C 10 km+ - 260° 260° 11 kt METAR EDLV 061020Z 26011KT 210V280 9999 FEW030 16/08 Q1030
11:50
V
15 °C 10 km+ - 250° 250° 11 kt METAR EDLV 060950Z 25011KT 220V280 CAVOK 15/09 Q1030
11:20
V
14 °C 10 km+ - 260° 260° 11 kt METAR EDLV 060920Z 26011KT CAVOK 14/09 Q1029
10:50
V
14 °C 10 km+ - 240° 240° 10 kt METAR EDLV 060850Z 24010KT CAVOK 14/09 Q1029
10:20
V
13 °C 10 km+ - 240° 240° 9 kt METAR EDLV 060820Z 24009KT CAVOK 13/09 Q1029
09:50
V
12 °C 10 km+ - 230° 230° 10 kt METAR EDLV 060750Z 23010KT CAVOK 12/09 Q1028
09:20
V
12 °C 10 km+ - 230° 230° 9 kt METAR EDLV 060720Z 23009KT 200V270 CAVOK 12/08 Q1028
08:50
V
11 °C 10 km+ - 230° 230° 9 kt METAR EDLV 060650Z 23009KT CAVOK 11/08 Q1027
08:20
V
11 °C 10 km+ - 220° 220° 8 kt METAR EDLV 060620Z 22008KT CAVOK 11/08 Q1027
07:50
V
11 °C 10 km+ - 220° 220° 8 kt METAR EDLV 060550Z 22008KT CAVOK 11/08 Q1026
07:20
V
11 °C 10 km+ - 230° 230° 7 kt METAR EDLV 060520Z 23007KT CAVOK 11/08 Q1026
06:50
V
11 °C 10 km+ - 230° 230° 7 kt METAR EDLV 060450Z 23007KT 190V250 CAVOK 11/09 Q1026
06:20
V
12 °C 10 km+ - 230° 230° 8 kt METAR EDLV 060420Z 23008KT CAVOK 12/09 Q1025
05:50
V
12 °C 10 km+ - 240° 240° 9 kt METAR EDLV 060350Z 24009KT CAVOK 12/09 Q1025
05:20
V
12 °C 10 km+ - 240° 240° 10 kt METAR EDLV 060320Z 24010KT 9999 FEW038 12/09 Q1024
04:50
V
13 °C 10 km+ - 240° 240° 10 kt METAR EDLV 060250Z 24010KT 9999 SCT037 13/09 Q1024
04:20
V
13 °C 10 km+ - 250° 250° 11 kt METAR EDLV 060220Z AUTO 25011KT 9999 // FEW038/// SCT240/// 13/09 Q1023
03:50
V
14 °C 10 km+ - 250° 250° 12 kt METAR EDLV 060150Z AUTO 25012KT 9999 // FEW038/// 14/09 Q1023
03:20
V
14 °C 10 km+ - 250° 250° 11 kt METAR EDLV 060120Z AUTO 25011KT 9999 // NCD 14/09 Q1022
02:50
V
13 °C 10 km+ - 250° 250° 12 kt METAR EDLV 060050Z AUTO 25012KT 9999 // NCD 13/10 Q1022
02:20
V
14 °C 10 km+ - 250° 250° 11 kt METAR EDLV 060020Z AUTO 25011KT 9999 // NCD 14/10 Q1021
01:50
V
14 °C 10 km+ - 250° 250° 11 kt METAR EDLV 052350Z AUTO 25011KT 9999 // FEW071/// 14/11 Q1021
01:20
V
14 °C 10 km+ 6.500 ft 240° 240° 13 kt METAR EDLV 052320Z AUTO 24013KT 9999 // BKN065/// 14/11 Q1020
00:50
V
15 °C 10 km+ 4.900 ft 240° 240° 11 kt METAR EDLV 052250Z AUTO 24011KT 9999 // BKN049/// OVC066/// 15/11 Q1020
00:20
V
15 °C 10 km+ 4.500 ft 250° 250° 15 kt METAR EDLV 052220Z AUTO 25015KT 9999 // SCT023/// BKN045/// OVC064/// 15/13 Q1019

5 października 2022

Czas Kod Pogoda Temp. Widoczność Sufit Wiatr METAR/SPECI
23:50
V
17 °C 10 km+ 6.000 ft 250° 250° 13 kt METAR EDLV 052150Z AUTO 25013KT 9999 // SCT023/// OVC060/// 17/13 Q1018
23:20
V
17 °C 10 km+ 4.800 ft 250° 250° 9 kt METAR EDLV 052120Z 25009KT 9999 FEW024 OVC048 17/14 Q1018
22:50
V
17 °C 9 km 3.800 ft 260° 260° 14 kt METAR EDLV 052050Z 26014KT 9000 -RA SCT025 OVC038 17/13 Q1017
22:20
V
18 °C 10 km+ 3.900 ft 220° 220° 12 kt METAR EDLV 052020Z 22012KT 9999 FEW032 OVC039 18/12 Q1016
21:50
V
18 °C 10 km+ 4.400 ft 210° 210° 12 kt METAR EDLV 051950Z 21012KT 9999 FEW033 OVC044 18/12 Q1016
21:20
V
18 °C 10 km+ 3.900 ft 210° 210° 13 kt METAR EDLV 051920Z 21013KT 9999 BKN039 18/12 Q1016
20:50
V
18 °C 10 km+ - 210° 210° 12 kt METAR EDLV 051850Z 21012KT 9999 FEW038 18/12 Q1016
20:20
V
18 °C 10 km+ 3.400 ft 220° 220° 14 kt METAR EDLV 051820Z 22014KT 9999 BKN034 18/11 Q1015
19:50
V
18 °C 10 km+ 3.400 ft 210° 210° 12 kt METAR EDLV 051750Z 21012KT 9999 BKN034 OVC047 18/11 Q1015
19:20
V
18 °C 10 km+ 3.400 ft 220° 220° 14 kt METAR EDLV 051720Z 22014KT 9999 OVC034 18/11 Q1015
18:50
V
18 °C 10 km+ 3.600 ft 220° 220° 14 kt METAR EDLV 051650Z 22014KT 190V250 9999 BKN036 18/10 Q1015
18:20
V
18 °C 10 km+ 4.200 ft 250° 250° 18 kt METAR EDLV 051620Z 25018KT 9999 FEW033 BKN042 18/10 Q1015
17:50
V
20 °C 10 km+ 4.600 ft 230° 230° 13 kt METAR EDLV 051550Z 23013KT 9999 FEW038 BKN046 20/12 Q1014
17:20
V
20 °C 10 km+ - 230° 230° 18 - 28 kt METAR EDLV 051520Z 23018G28KT 200V260 9999 FEW037 SCT044 20/12 Q1013
16:50
V
21 °C 10 km+ 4.200 ft 210° 210° 11 kt METAR EDLV 051450Z 21011KT 9999 SCT037 BKN042 21/13 Q1013
16:20
V
21 °C 10 km+ 3.800 ft 210° 210° 14 kt METAR EDLV 051420Z 21014KT 9999 BKN038 21/13 Q1013
15:50
V
21 °C 10 km+ - 210° 210° 14 kt METAR EDLV 051350Z 21014KT 180V240 9999 SCT035 21/13 Q1013
15:20
V
21 °C 10 km+ - 200° 200° 14 kt METAR EDLV 051320Z 20014KT 170V230 9999 FEW034 21/13 Q1013
14:50
V
21 °C 10 km+ - 200° 200° 13 kt METAR EDLV 051250Z 20013KT 170V230 9999 SCT032 21/13 Q1013
Starsze dane

My i osoby trzecie śledzimy twoje zachowanie w internecie na naszej stronie za pomocą plików cookie. Jeśli kontynuujesz, zakładamy, że zgadzasz się z naszą polityką plików cookie. Dowiedz się więcej